createdAt,value
2019-05-15T00:02:18.414Z,11.70
2019-05-15T00:04:49.193Z,11.60
2019-05-15T00:07:18.902Z,11.70
2019-05-15T00:09:49.176Z,11.60
2019-05-15T00:12:20.378Z,11.60
2019-05-15T00:14:49.975Z,11.60
2019-05-15T00:17:19.478Z,11.60
2019-05-15T00:19:48.874Z,11.60
2019-05-15T00:22:18.515Z,11.50
2019-05-15T00:24:48.806Z,11.50
2019-05-15T00:27:20.284Z,11.50
2019-05-15T00:29:49.881Z,11.40
2019-05-15T00:32:19.279Z,11.30
2019-05-15T00:34:49.617Z,11.30
2019-05-15T00:37:19.361Z,11.20
2019-05-15T00:39:49.099Z,11.20
2019-05-15T00:42:18.996Z,11.20
2019-05-15T00:44:49.310Z,11.20
2019-05-15T00:47:18.895Z,11.20
2019-05-15T00:49:48.822Z,11.10
2019-05-15T00:52:18.544Z,11.10
2019-05-15T00:54:48.500Z,11.10
2019-05-15T00:57:19.274Z,11.10
2019-05-15T00:59:50.563Z,11.10
2019-05-15T01:02:19.947Z,11.10
2019-05-15T01:04:49.375Z,11.00
2019-05-15T01:07:18.927Z,11.00
2019-05-15T01:09:48.815Z,10.90
2019-05-15T01:12:18.621Z,10.80
2019-05-15T01:14:49.101Z,10.80
2019-05-15T01:17:18.802Z,10.80
2019-05-15T01:19:49.874Z,10.70
2019-05-15T01:22:19.589Z,10.70
2019-05-15T01:24:49.385Z,10.60
2019-05-15T01:27:19.046Z,10.50
2019-05-15T01:29:49.387Z,10.50
2019-05-15T01:32:30.907Z,10.50
2019-05-15T01:35:00.895Z,10.50
2019-05-15T01:37:31.071Z,10.40
2019-05-15T01:40:00.821Z,10.40
2019-05-15T01:42:30.669Z,10.40
2019-05-15T01:45:00.162Z,10.30
2019-05-15T01:47:29.509Z,10.40
2019-05-15T01:49:59.305Z,10.30
2019-05-15T01:52:28.687Z,10.30
2019-05-15T01:54:58.383Z,10.30
2019-05-15T01:57:28.741Z,10.20
2019-05-15T02:00:00.880Z,10.20
2019-05-15T02:02:29.974Z,10.10
2019-05-15T02:04:59.809Z,10.20
2019-05-15T02:07:30.614Z,10.10
2019-05-15T02:10:00.158Z,9.90
2019-05-15T02:12:29.488Z,10.00
2019-05-15T02:14:59.000Z,9.90
2019-05-15T02:17:28.403Z,9.90
2019-05-15T02:19:58.754Z,9.90
2019-05-15T02:22:31.079Z,9.80
2019-05-15T02:25:00.799Z,9.80
2019-05-15T02:27:30.347Z,9.80
2019-05-15T02:30:15.989Z,9.60
2019-05-15T02:32:32.700Z,9.60
2019-05-15T02:35:02.209Z,9.50
2019-05-15T02:37:31.534Z,9.40
2019-05-15T02:40:02.822Z,9.40
2019-05-15T02:42:32.205Z,9.30
2019-05-15T02:45:02.541Z,9.30
2019-05-15T02:47:32.006Z,9.30
2019-05-15T02:50:01.854Z,9.20
2019-05-15T02:52:31.462Z,9.20
2019-05-15T02:55:01.210Z,9.20
2019-05-15T02:57:30.683Z,9.20
2019-05-15T03:00:00.125Z,9.10
2019-05-15T03:02:29.810Z,9.20
2019-05-15T03:04:59.655Z,9.10
2019-05-15T03:07:29.710Z,9.10
2019-05-15T03:10:00.004Z,9.20
2019-05-15T03:12:29.747Z,9.20
2019-05-15T03:14:59.993Z,9.20
2019-05-15T03:17:29.951Z,9.20
2019-05-15T03:19:59.528Z,9.20
2019-05-15T03:22:29.530Z,9.20
2019-05-15T03:24:59.382Z,9.10
2019-05-15T03:27:30.397Z,9.10
2019-05-15T03:30:00.103Z,9.10
2019-05-15T03:32:41.098Z,9.00
2019-05-15T03:35:05.481Z,9.00
2019-05-15T03:37:35.056Z,8.90
2019-05-15T03:40:05.573Z,8.80
2019-05-15T03:42:35.206Z,8.80
2019-05-15T03:45:05.160Z,8.80
2019-05-15T03:47:34.708Z,8.80
2019-05-15T03:50:04.375Z,8.80
2019-05-15T03:52:34.087Z,8.80
2019-05-15T03:55:03.819Z,9.20
2019-05-15T03:57:33.388Z,9.40
2019-05-15T04:00:03.023Z,9.40
2019-05-15T04:02:32.877Z,9.20
2019-05-15T04:05:02.443Z,8.90
2019-05-15T04:07:31.854Z,8.70
2019-05-15T04:10:01.209Z,8.60
2019-05-15T04:12:30.764Z,8.70
2019-05-15T04:15:00.539Z,8.70
2019-05-15T04:17:29.928Z,8.70
2019-05-15T04:19:59.642Z,8.70
2019-05-15T04:22:29.378Z,8.70
2019-05-15T04:25:00.122Z,8.90
2019-05-15T04:27:30.523Z,9.50
2019-05-15T04:30:00.160Z,9.20
2019-05-15T04:32:29.715Z,9.10
2019-05-15T04:34:59.522Z,9.00
2019-05-15T04:37:29.877Z,8.90
2019-05-15T04:40:00.243Z,8.90
2019-05-15T04:42:30.097Z,8.80
2019-05-15T04:45:00.156Z,8.90
2019-05-15T04:47:30.350Z,8.80
2019-05-15T04:50:00.047Z,8.90
2019-05-15T04:52:30.376Z,9.00
2019-05-15T04:55:00.511Z,8.90
2019-05-15T04:57:33.751Z,9.00
2019-05-15T05:00:01.135Z,9.10
2019-05-15T05:02:32.275Z,9.20
2019-05-15T05:05:05.018Z,9.20
2019-05-15T05:07:38.682Z,9.30
2019-05-15T05:10:09.701Z,9.40
2019-05-15T05:12:41.957Z,9.30
2019-05-15T05:15:10.212Z,9.40
2019-05-15T05:17:40.596Z,9.50
2019-05-15T05:20:10.681Z,9.50
2019-05-15T05:22:40.022Z,9.50
2019-05-15T05:25:10.543Z,9.60
2019-05-15T05:27:39.941Z,9.60
2019-05-15T05:30:09.910Z,9.60
2019-05-15T05:32:41.276Z,9.70
2019-05-15T05:35:11.379Z,9.70
2019-05-15T05:37:40.731Z,9.90
2019-05-15T05:40:10.715Z,9.90
2019-05-15T05:42:40.321Z,9.90
2019-05-15T05:45:10.653Z,10.00
2019-05-15T05:47:40.003Z,10.10
2019-05-15T05:50:09.765Z,10.20
2019-05-15T05:52:39.348Z,10.30
2019-05-15T05:55:09.724Z,10.40
2019-05-15T05:57:39.108Z,10.40
2019-05-15T06:00:09.695Z,10.40
2019-05-15T06:02:48.100Z,10.40
2019-05-15T06:05:12.325Z,10.50
2019-05-15T06:07:41.763Z,10.60
2019-05-15T06:10:11.183Z,10.60
2019-05-15T06:12:41.498Z,10.60
2019-05-15T06:15:10.997Z,10.70
2019-05-15T06:17:40.368Z,10.70
2019-05-15T06:20:10.106Z,10.70
2019-05-15T06:22:40.473Z,10.70
2019-05-15T06:25:11.686Z,10.80
2019-05-15T06:27:41.291Z,10.90
2019-05-15T06:30:19.497Z,10.80
2019-05-15T06:32:42.572Z,10.90
2019-05-15T06:35:12.739Z,10.90
2019-05-15T06:37:42.856Z,11.00
2019-05-15T06:40:12.580Z,12.40
2019-05-15T06:42:42.174Z,13.20
2019-05-15T06:45:12.031Z,14.00
2019-05-15T06:47:41.545Z,14.50
2019-05-15T06:50:12.960Z,14.70
2019-05-15T06:52:42.403Z,14.70
2019-05-15T06:55:11.880Z,14.50
2019-05-15T06:57:41.387Z,14.60
2019-05-15T07:00:11.461Z,14.70
2019-05-15T07:02:40.985Z,14.70
2019-05-15T07:05:11.314Z,14.90
2019-05-15T07:07:41.098Z,14.10
2019-05-15T07:10:10.736Z,14.00
2019-05-15T07:12:40.143Z,12.90
2019-05-15T07:15:10.326Z,12.70
2019-05-15T07:17:39.672Z,12.60
2019-05-15T07:20:09.735Z,12.40
2019-05-15T07:22:39.483Z,12.40
2019-05-15T07:25:10.084Z,12.40
2019-05-15T07:27:39.908Z,12.30
2019-05-15T07:30:12.129Z,12.20
2019-05-15T07:32:41.828Z,12.30
2019-05-15T07:35:11.502Z,12.30
2019-05-15T07:37:40.854Z,12.20
2019-05-15T07:40:11.302Z,12.20
2019-05-15T07:42:40.775Z,12.20
2019-05-15T07:45:11.862Z,12.20
2019-05-15T07:47:41.210Z,12.30
2019-05-15T07:50:11.468Z,12.20
2019-05-15T07:52:41.335Z,12.10
2019-05-15T07:55:11.621Z,12.10
2019-05-15T07:57:40.989Z,12.10
2019-05-15T08:00:11.595Z,12.00
2019-05-15T08:02:41.055Z,12.20
2019-05-15T08:05:11.261Z,12.30
2019-05-15T08:07:40.932Z,12.40
2019-05-15T08:10:11.086Z,12.40
2019-05-15T08:12:40.548Z,12.50
2019-05-15T08:15:11.851Z,12.40
2019-05-15T08:18:00.082Z,12.40
2019-05-15T08:20:12.778Z,12.40
2019-05-15T08:22:45.528Z,12.40
2019-05-15T08:25:28.288Z,12.50
2019-05-15T08:27:48.499Z,12.60
2019-05-15T08:30:18.384Z,12.70
2019-05-15T08:32:51.308Z,12.80
2019-05-15T08:35:19.326Z,12.80
2019-05-15T08:37:49.985Z,12.80
2019-05-15T08:40:20.235Z,12.80
2019-05-15T08:42:57.382Z,12.90
2019-05-15T08:45:22.676Z,13.00
2019-05-15T08:47:52.194Z,13.00
2019-05-15T08:50:21.733Z,12.80
2019-05-15T08:52:51.099Z,12.80
2019-05-15T08:55:20.789Z,12.80
2019-05-15T08:57:55.414Z,12.80
2019-05-15T09:00:22.278Z,12.90
2019-05-15T09:02:51.753Z,13.00
2019-05-15T09:05:21.772Z,13.10
2019-05-15T09:07:51.112Z,13.20
2019-05-15T09:10:20.722Z,13.30
2019-05-15T09:12:50.432Z,13.40
2019-05-15T09:15:20.244Z,13.40
2019-05-15T09:17:49.987Z,13.20
2019-05-15T09:20:20.000Z,13.10
2019-05-15T09:22:49.446Z,13.00
2019-05-15T09:25:19.778Z,13.10
2019-05-15T09:27:49.196Z,13.10
2019-05-15T09:30:18.782Z,13.20
2019-05-15T09:32:48.683Z,13.30
2019-05-15T09:35:20.989Z,13.40
2019-05-15T09:37:50.763Z,13.50
2019-05-15T09:40:20.244Z,13.60
2019-05-15T09:42:49.663Z,13.70
2019-05-15T09:45:19.327Z,13.80
2019-05-15T09:47:49.003Z,13.80
2019-05-15T09:50:19.443Z,13.80
2019-05-15T09:52:50.267Z,13.90
2019-05-15T09:55:20.762Z,14.00
2019-05-15T09:57:50.310Z,14.00
2019-05-15T10:00:22.301Z,14.00
2019-05-15T10:02:51.824Z,14.00
2019-05-15T10:05:21.512Z,14.10
2019-05-15T10:07:51.119Z,14.10
2019-05-15T10:10:20.648Z,14.00
2019-05-15T10:12:50.130Z,14.00
2019-05-15T10:15:19.631Z,14.00
2019-05-15T10:17:51.239Z,14.00
2019-05-15T10:20:20.280Z,14.10
2019-05-15T10:22:49.808Z,14.00
2019-05-15T10:25:19.299Z,13.90
2019-05-15T10:27:54.156Z,13.90
2019-05-15T10:30:24.142Z,13.90
2019-05-15T10:32:53.756Z,13.90
2019-05-15T10:35:28.217Z,14.00
2019-05-15T10:37:54.607Z,14.00
2019-05-15T10:40:24.015Z,14.00
2019-05-15T10:42:53.589Z,14.00
2019-05-15T10:45:23.228Z,14.10
2019-05-15T10:47:52.863Z,14.10
2019-05-15T10:50:22.678Z,14.20
2019-05-15T10:52:52.193Z,14.20
2019-05-15T10:55:21.862Z,14.40
2019-05-15T10:57:51.263Z,14.50
2019-05-15T11:00:21.427Z,14.50
2019-05-15T11:02:50.997Z,14.60
2019-05-15T11:05:20.849Z,14.70
2019-05-15T11:07:50.421Z,14.70
2019-05-15T11:10:20.190Z,14.70
2019-05-15T11:12:49.508Z,14.80
2019-05-15T11:15:19.500Z,14.90
2019-05-15T11:17:50.892Z,15.00
2019-05-15T11:20:20.498Z,15.10
2019-05-15T11:22:50.263Z,15.10
2019-05-15T11:25:19.839Z,15.20
2019-05-15T11:27:49.207Z,15.20
2019-05-15T11:30:19.448Z,15.20
2019-05-15T11:32:48.943Z,15.20
2019-05-15T11:35:19.069Z,15.20
2019-05-15T11:37:56.023Z,15.20
2019-05-15T11:40:20.031Z,15.30
2019-05-15T11:42:49.438Z,15.20
2019-05-15T11:45:20.071Z,15.20
2019-05-15T11:48:09.018Z,15.20
2019-05-15T11:50:40.398Z,15.30
2019-05-15T11:53:09.991Z,15.40
2019-05-15T11:55:39.419Z,15.50
2019-05-15T11:58:10.667Z,15.60
2019-05-15T12:00:40.048Z,15.60
2019-05-15T12:03:09.976Z,15.70
2019-05-15T12:05:39.367Z,15.80
2019-05-15T12:08:12.364Z,15.80
2019-05-15T12:10:44.614Z,15.70
2019-05-15T12:13:14.007Z,15.70
2019-05-15T12:15:43.562Z,15.80
2019-05-15T12:18:13.051Z,15.80
2019-05-15T12:20:42.734Z,15.50
2019-05-15T12:23:12.275Z,15.20
2019-05-15T12:25:41.753Z,15.20
2019-05-15T12:28:11.233Z,15.40
2019-05-15T12:30:42.438Z,15.60
2019-05-15T12:33:13.356Z,15.60
2019-05-15T12:35:42.753Z,15.40
2019-05-15T12:38:12.193Z,15.30
2019-05-15T13:00:52.356Z,16.20
2019-05-15T13:03:21.978Z,16.30
2019-05-15T13:05:51.587Z,16.40
2019-05-15T13:08:21.222Z,16.40
2019-05-15T13:10:50.670Z,16.60
2019-05-15T13:13:20.087Z,16.60
2019-05-15T13:15:49.846Z,16.60
2019-05-15T13:18:19.342Z,16.50
2019-05-15T13:20:49.158Z,16.30
2019-05-15T13:23:20.685Z,16.00
2019-05-15T13:25:50.160Z,15.80
2019-05-15T13:28:19.784Z,15.80
2019-05-15T13:30:49.507Z,15.80
2019-05-15T13:33:19.510Z,16.00
2019-05-15T13:35:48.919Z,16.20
2019-05-15T13:38:18.290Z,16.40
2019-05-15T13:40:48.174Z,16.40
2019-05-15T13:43:18.586Z,16.50
2019-05-15T13:45:49.058Z,16.70
2019-05-15T13:48:20.643Z,17.00
2019-05-15T13:50:50.061Z,17.20
2019-05-15T13:53:19.469Z,17.20
2019-05-15T13:55:48.899Z,16.90
2019-05-15T13:58:18.349Z,16.50
2019-05-15T14:00:50.057Z,16.30
2019-05-15T14:03:19.683Z,16.10
2019-05-15T14:05:49.987Z,16.30
2019-05-15T14:08:19.687Z,16.40
2019-05-15T14:10:49.344Z,16.60
2019-05-15T14:13:19.687Z,16.80
2019-05-15T14:15:49.711Z,17.00
2019-05-15T14:18:19.821Z,17.10
2019-05-15T14:20:51.413Z,17.00
2019-05-15T14:23:21.939Z,16.90
2019-05-15T14:25:51.360Z,16.80
2019-05-15T14:28:21.221Z,16.60
2019-05-15T14:30:51.024Z,16.60
2019-05-15T14:33:20.469Z,16.70
2019-05-15T14:35:49.881Z,16.80
2019-05-15T14:38:19.336Z,17.00
2019-05-15T14:40:48.686Z,16.90
2019-05-15T14:43:18.492Z,16.90
2019-05-15T14:45:48.262Z,16.90
2019-05-15T14:48:19.093Z,17.00
2019-05-15T14:50:48.774Z,17.10
2019-05-15T14:53:18.741Z,16.90
2019-05-15T14:55:49.361Z,16.70
2019-05-15T14:58:19.773Z,16.80
2019-05-15T15:00:50.274Z,16.90
2019-05-15T15:03:20.082Z,17.00
2019-05-15T15:05:49.627Z,17.20
2019-05-15T15:08:24.858Z,17.40
2019-05-15T15:10:50.525Z,17.60
2019-05-15T15:13:20.249Z,17.70
2019-05-15T15:15:50.063Z,17.60
2019-05-15T15:18:19.564Z,17.50
2019-05-15T15:20:48.986Z,17.40
2019-05-15T15:23:18.472Z,17.10
2019-05-15T15:25:48.490Z,16.90
2019-05-15T15:28:18.858Z,16.70
2019-05-15T15:30:48.774Z,16.40
2019-05-15T15:33:18.968Z,16.30
2019-05-15T15:35:48.712Z,16.20
2019-05-15T15:38:26.817Z,16.50
2019-05-15T15:40:49.670Z,16.60
2019-05-15T15:43:19.728Z,16.60
2019-05-15T15:45:49.357Z,16.90
2019-05-15T15:48:19.381Z,17.20
2019-05-15T15:50:49.101Z,17.50
2019-05-15T15:53:19.224Z,17.80
2019-05-15T15:55:49.006Z,18.10
2019-05-15T15:58:19.957Z,18.30
2019-05-15T16:00:50.114Z,18.30
2019-05-15T16:03:19.645Z,18.20
2019-05-15T16:05:49.178Z,18.30
2019-05-15T16:08:19.110Z,18.40
2019-05-15T16:10:48.950Z,18.30
2019-05-15T16:13:24.847Z,18.40
2019-05-15T16:15:57.779Z,18.40
2019-05-15T16:18:28.912Z,18.50
2019-05-15T16:20:58.331Z,18.50
2019-05-15T16:23:28.426Z,18.20
2019-05-15T16:26:01.139Z,18.00
2019-05-15T16:28:31.394Z,17.90
2019-05-15T16:31:00.981Z,17.80
2019-05-15T16:33:30.515Z,17.50
2019-05-15T16:36:00.137Z,17.30
2019-05-15T16:38:29.934Z,17.10
2019-05-15T16:40:59.950Z,17.20
2019-05-15T16:43:29.517Z,17.10
2019-05-15T16:45:59.044Z,17.20
2019-05-15T16:48:29.465Z,17.50
2019-05-15T16:50:59.241Z,17.90
2019-05-15T16:53:30.625Z,17.90
2019-05-15T16:56:00.315Z,17.70
2019-05-15T16:58:29.923Z,17.50
2019-05-15T17:00:59.470Z,17.20
2019-05-15T17:03:29.151Z,16.90
2019-05-15T17:05:59.036Z,16.80
2019-05-15T17:08:32.039Z,16.70
2019-05-15T17:11:00.302Z,16.60
2019-05-15T17:13:29.940Z,16.50
2019-05-15T17:16:01.306Z,16.40
2019-05-15T17:18:30.862Z,16.40
2019-05-15T17:21:00.492Z,16.40
2019-05-15T17:23:30.084Z,16.40
2019-05-15T17:26:01.258Z,16.40
2019-05-15T17:28:30.876Z,16.80
2019-05-15T17:31:00.405Z,17.10
2019-05-15T17:33:29.914Z,17.60
2019-05-15T17:35:59.662Z,17.70
2019-05-15T17:38:30.041Z,17.80
2019-05-15T17:40:59.636Z,17.70
2019-05-15T17:43:29.336Z,17.20
2019-05-15T17:45:59.173Z,17.00
2019-05-15T17:48:29.106Z,16.80
2019-05-15T17:50:59.463Z,17.00
2019-05-15T17:53:31.537Z,17.40
2019-05-15T17:56:01.247Z,17.90
2019-05-15T17:58:31.175Z,18.30
2019-05-15T18:01:02.352Z,18.60
2019-05-15T18:03:32.054Z,18.70
2019-05-15T18:06:01.718Z,18.80
2019-05-15T18:08:31.839Z,19.00
2019-05-15T18:11:01.922Z,19.50
2019-05-15T18:13:31.613Z,20.00
2019-05-15T18:16:03.804Z,20.10
2019-05-15T18:18:32.396Z,19.90
2019-05-15T18:21:02.361Z,20.00
2019-05-15T18:23:31.891Z,19.80
2019-05-15T18:26:01.879Z,19.30
2019-05-15T18:28:31.783Z,18.70
2019-05-15T18:31:02.854Z,18.30
2019-05-15T18:33:32.508Z,17.90
2019-05-15T18:36:01.976Z,17.50
2019-05-15T18:38:31.667Z,17.20
2019-05-15T18:41:03.768Z,17.10
2019-05-15T18:43:33.037Z,16.80
2019-05-15T18:46:02.645Z,16.70
2019-05-15T18:48:32.192Z,16.60
2019-05-15T18:51:01.833Z,16.50
2019-05-15T18:53:31.726Z,16.50
2019-05-15T18:56:01.335Z,16.30
2019-05-15T18:58:30.974Z,16.30
2019-05-15T19:01:00.924Z,16.30
2019-05-15T19:03:30.515Z,16.10
2019-05-15T19:06:00.082Z,16.00
2019-05-15T19:08:31.304Z,16.00
2019-05-15T19:11:01.202Z,15.90
2019-05-15T19:13:30.629Z,15.90
2019-05-15T19:16:00.191Z,15.90
2019-05-15T19:18:29.849Z,15.80
2019-05-15T19:20:59.330Z,15.70
2019-05-15T19:23:28.923Z,15.70
2019-05-15T19:25:58.677Z,15.70
2019-05-15T19:28:28.723Z,15.60
2019-05-15T19:30:58.934Z,15.60
2019-05-15T19:33:37.044Z,15.50
2019-05-15T19:36:02.223Z,15.50
2019-05-15T19:38:31.973Z,15.40
2019-05-15T19:41:06.351Z,15.40
2019-05-15T19:43:33.164Z,15.40
2019-05-15T19:46:03.624Z,15.30
2019-05-15T19:48:33.140Z,15.40
2019-05-15T19:51:02.629Z,15.30
2019-05-15T19:53:32.514Z,15.30
2019-05-15T19:56:02.151Z,15.50
2019-05-15T19:58:31.941Z,15.50
2019-05-15T20:01:01.599Z,15.60
2019-05-15T20:03:31.301Z,15.60
2019-05-15T20:06:01.758Z,15.40
2019-05-15T20:08:31.458Z,15.40
2019-05-15T20:11:01.135Z,15.40
2019-05-15T20:13:30.742Z,15.20
2019-05-15T20:16:00.164Z,15.20
2019-05-15T20:18:29.896Z,15.20
2019-05-15T20:20:59.648Z,15.10
2019-05-15T20:23:29.249Z,15.10
2019-05-15T20:25:59.450Z,15.00
2019-05-15T20:28:29.123Z,15.00
2019-05-15T20:30:59.028Z,15.00
2019-05-15T20:33:29.527Z,15.00
2019-05-15T20:35:59.071Z,15.00
2019-05-15T20:38:29.133Z,15.00
2019-05-15T20:40:59.682Z,14.90
2019-05-15T20:43:29.773Z,14.80
2019-05-15T20:45:59.895Z,14.80
2019-05-15T20:48:30.976Z,14.80
2019-05-15T20:51:02.967Z,14.70
2019-05-15T20:53:32.740Z,14.80
2019-05-15T20:56:02.401Z,14.80
2019-05-15T20:58:33.519Z,14.80
2019-05-15T21:01:03.415Z,14.70
2019-05-15T21:03:32.850Z,14.60
2019-05-15T21:06:02.599Z,14.60
2019-05-15T21:08:32.123Z,14.50
2019-05-15T21:11:03.234Z,14.40
2019-05-15T21:13:32.944Z,14.40
2019-05-15T21:16:04.079Z,14.40
2019-05-15T21:18:33.650Z,14.30
2019-05-15T21:21:03.151Z,14.30
2019-05-15T21:23:32.698Z,14.30
2019-05-15T21:26:02.280Z,14.40
2019-05-15T21:28:32.098Z,14.30
2019-05-15T21:31:01.675Z,14.20
2019-05-15T21:33:31.516Z,14.20
2019-05-15T21:36:00.824Z,14.20
2019-05-15T21:38:30.532Z,14.20
2019-05-15T21:41:00.172Z,14.20
2019-05-15T21:43:33.012Z,14.10
2019-05-15T21:46:02.603Z,14.10
2019-05-15T21:48:32.127Z,14.00
2019-05-15T21:51:01.773Z,13.90
2019-05-15T21:53:38.861Z,14.00
2019-05-15T21:56:08.564Z,14.00
2019-05-15T21:58:38.257Z,14.00
2019-05-15T22:01:10.526Z,14.00
2019-05-15T22:03:40.291Z,13.90
2019-05-15T22:06:09.989Z,14.50
2019-05-15T22:08:39.428Z,14.10
2019-05-15T22:11:09.086Z,14.00
2019-05-15T22:13:39.498Z,14.00
2019-05-15T22:16:09.606Z,14.00
2019-05-15T22:18:38.931Z,13.90
2019-05-15T22:21:08.400Z,13.90
2019-05-15T22:23:38.436Z,13.90
2019-05-15T22:26:08.159Z,13.90
2019-05-15T22:28:38.656Z,14.00
2019-05-15T22:31:08.839Z,14.00
2019-05-15T22:33:38.604Z,14.00
2019-05-15T22:36:08.622Z,14.00
2019-05-15T22:38:38.313Z,13.90
2019-05-15T22:41:10.378Z,13.90
2019-05-15T22:43:39.348Z,13.80
2019-05-15T22:46:10.949Z,13.70
2019-05-15T22:48:39.867Z,13.60
2019-05-15T22:51:09.236Z,13.60
2019-05-15T22:53:38.663Z,13.50
2019-05-15T22:56:09.319Z,13.40
2019-05-15T22:58:39.010Z,13.40
2019-05-15T23:01:09.332Z,13.40
2019-05-15T23:03:39.596Z,13.40
2019-05-15T23:06:09.936Z,13.40
2019-05-15T23:08:39.418Z,13.50
2019-05-15T23:11:09.676Z,13.50
2019-05-15T23:13:39.726Z,13.50
2019-05-15T23:16:28.342Z,13.50
2019-05-15T23:18:58.805Z,13.50
2019-05-15T23:21:28.787Z,13.40
2019-05-15T23:23:58.609Z,13.40
2019-05-15T23:26:28.382Z,13.50
2019-05-15T23:28:58.562Z,13.40
2019-05-15T23:31:28.335Z,13.30
2019-05-15T23:33:57.883Z,13.30
2019-05-15T23:36:28.480Z,13.30
2019-05-15T23:38:58.481Z,13.30
2019-05-15T23:41:28.192Z,13.40
2019-05-15T23:43:57.702Z,13.20
2019-05-15T23:46:28.796Z,13.20
2019-05-15T23:48:58.843Z,13.10
2019-05-15T23:51:28.369Z,13.20
2019-05-15T23:54:00.100Z,13.20
2019-05-15T23:56:29.446Z,13.20
2019-05-15T23:58:58.860Z,13.10
